This is the latest recevied weather packets stored in our database for station/object OK1ALX-6. If no packets are shown the sender has not sent any weather packets the latest 1 day(s).
| Time | Temp. | Humidity | Pressure | Rain* | Wind** | Luminosity | Snow |
|---|---|---|---|---|---|---|---|
| 1778006403 | 17.22° C | 76% | 1008.9 hPa | 0 mm | 0 m/s | 0 W/m² | - |
| 1778005803 | 17.22° C | 76% | 1009 hPa | 0 mm | 0 m/s | 0 W/m² | - |
| 1778005203 | 17.22° C | 75% | 1009.2 hPa | 0 mm | 0 m/s | 0 W/m² | - |
| 1778004603 | 17.22° C | 75% | 1009.1 hPa | 0 mm | 0 m/s | 0 W/m² | - |
| 1778004003 | 17.22° C | 74% | 1009.4 hPa | 0 mm | 1.34 m/s, 317° | 0 W/m² | - |
| 1778003403 | 17.78° C | 72% | 1009.5 hPa | 0 mm | 1.34 m/s, 315° | 2 W/m² | - |
| 1778002803 | 18.33° C | 69% | 1009.3 hPa | 0 mm | 1.79 m/s, 314° | 5 W/m² | - |
| 1778002203 | 18.33° C | 68% | 1009.5 hPa | 0 mm | 1.34 m/s, 317° | 6 W/m² | - |
| 1778001603 | 18.33° C | 69% | 1009.4 hPa | 0 mm | 2.68 m/s, 311° | 5 W/m² | - |
| 1778001003 | 18.89° C | 65% | 1009.3 hPa | 0 mm | 2.68 m/s, 308° | 5 W/m² | - |
| 1778000403 | 19.44° C | 63% | 1009.3 hPa | 0 mm | 3.13 m/s, 296° | 7 W/m² | - |
| 1777999803 | 20° C | 60% | 1009 hPa | 0 mm | 3.13 m/s, 292° | 6 W/m² | - |
| 1777999203 | 20.56° C | 58% | 1009 hPa | 0 mm | 2.24 m/s, 289° | 6 W/m² | - |
| 1777998603 | 21.11° C | 53% | 1008.7 hPa | 0 mm | 2.24 m/s, 263° | 9 W/m² | - |
| 1777998003 | 22.78° C | 49% | 1008.5 hPa | 0 mm | 0.89 m/s, 231° | 10 W/m² | - |
| 1777997403 | 23.33° C | 44% | 1008.4 hPa | 0 mm | 0.89 m/s, 140° | 10 W/m² | - |
| 1777996811 | 23.33° C | 43% | 1008.4 hPa | 0 mm | 1.34 m/s, 160° | 13 W/m² | - |
| 1777996203 | 23.89° C | 42% | 1008.3 hPa | 0 mm | 1.34 m/s, 141° | 16 W/m² | - |
| 1777995603 | 23.89° C | 42% | 1008.4 hPa | 0 mm | 1.34 m/s, 148° | 23 W/m² | - |
| 1777995003 | 23.89° C | 43% | 1008.4 hPa | 0 mm | 0.89 m/s, 133° | 24 W/m² | - |
| 1777994403 | 23.89° C | 41% | 1008.3 hPa | 0 mm | 1.34 m/s, 126° | 40 W/m² | - |
| 1777993803 | 24.44° C | 41% | 1009.9 hPa | 0 mm | 0.45 m/s, 117° | 87 W/m² | - |
| 1777993203 | 24.44° C | 41% | 1008.3 hPa | 0 mm | 2.24 m/s, 123° | 87 W/m² | - |
| 1777992603 | 25° C | 41% | 1008 hPa | 0 mm | 2.24 m/s, 131° | 149 W/m² | - |
| 1777992003 | 23.89° C | 39% | 1008.4 hPa | 0 mm | 1.34 m/s, 124° | 423 W/m² | - |
* Rain latest hour (hover to see other rain measurements)
** Current wind speed in m/s (hover to see current wind gust speed)